createdAt,value
2022-11-17T00:00:24.821Z,12.90
2022-11-17T00:02:53.026Z,12.90
2022-11-17T00:05:21.244Z,12.90
2022-11-17T00:07:50.077Z,12.80
2022-11-17T00:10:18.588Z,12.70
2022-11-17T00:13:05.843Z,12.70
2022-11-17T00:15:34.263Z,12.70
2022-11-17T00:18:20.286Z,12.70
2022-11-17T00:21:06.468Z,12.70
2022-11-17T00:23:48.191Z,12.70
2022-11-17T00:26:16.882Z,12.80
2022-11-17T00:28:46.558Z,12.70
2022-11-17T00:31:32.697Z,12.60
2022-11-17T00:34:07.431Z,12.60
2022-11-17T00:36:37.073Z,12.60
2022-11-17T00:39:05.800Z,12.60
2022-11-17T00:41:33.932Z,12.70
2022-11-17T00:44:03.462Z,12.50
2022-11-17T00:46:32.096Z,12.60
2022-11-17T00:49:00.499Z,12.70
2022-11-17T00:51:28.700Z,12.70
2022-11-17T00:53:57.013Z,12.80
2022-11-17T00:56:26.572Z,12.70
2022-11-17T00:58:55.149Z,12.80
2022-11-17T01:01:25.308Z,12.80
2022-11-17T01:04:02.814Z,12.80
2022-11-17T01:06:32.484Z,12.70
2022-11-17T01:09:01.119Z,12.80
2022-11-17T01:11:29.414Z,13.00
2022-11-17T01:13:58.580Z,12.80
2022-11-17T01:16:28.532Z,12.80
2022-11-17T01:18:56.599Z,12.80
2022-11-17T01:21:25.789Z,12.80
2022-11-17T01:23:54.654Z,12.90
2022-11-17T01:26:23.348Z,12.80
2022-11-17T01:28:52.031Z,13.00
2022-11-17T01:31:20.949Z,13.10
2022-11-17T01:33:50.611Z,13.10
2022-11-17T01:36:19.641Z,13.00
2022-11-17T01:38:47.778Z,13.10
2022-11-17T01:41:17.569Z,13.10
2022-11-17T01:43:47.324Z,13.20
2022-11-17T01:46:28.575Z,13.10
2022-11-17T01:49:01.643Z,13.10
2022-11-17T01:51:31.009Z,13.00
2022-11-17T01:53:59.483Z,13.00
2022-11-17T01:56:29.543Z,13.00
2022-11-17T01:58:59.492Z,13.00
2022-11-17T02:01:27.884Z,13.10
2022-11-17T02:03:56.247Z,13.10
2022-11-17T02:06:27.789Z,13.10
2022-11-17T02:08:56.159Z,13.10
2022-11-17T02:11:25.153Z,13.20
2022-11-17T02:13:54.502Z,13.10
2022-11-17T02:16:22.766Z,12.90
2022-11-17T02:18:50.974Z,12.80
2022-11-17T02:21:45.832Z,12.80
2022-11-17T02:24:24.718Z,12.90
2022-11-17T02:27:05.297Z,13.10
2022-11-17T02:29:38.242Z,13.40
2022-11-17T02:32:08.015Z,13.30
2022-11-17T02:34:39.805Z,13.30
2022-11-17T02:37:10.518Z,13.30
2022-11-17T02:39:48.681Z,13.20
2022-11-17T02:42:18.458Z,13.30
2022-11-17T02:44:49.843Z,13.30
2022-11-17T02:47:20.505Z,13.20
2022-11-17T02:49:51.513Z,13.00
2022-11-17T02:52:20.208Z,13.00
2022-11-17T02:54:48.201Z,13.10
2022-11-17T02:57:28.955Z,13.20
2022-11-17T02:59:59.347Z,13.30
2022-11-17T03:02:38.175Z,13.30
2022-11-17T03:05:10.835Z,13.20
2022-11-17T03:07:48.808Z,13.00
2022-11-17T03:10:18.499Z,12.90
2022-11-17T03:12:51.287Z,12.80
2022-11-17T03:15:24.122Z,12.80
2022-11-17T03:17:57.084Z,12.80
2022-11-17T03:20:27.139Z,12.80
2022-11-17T03:22:58.983Z,12.90
2022-11-17T03:25:28.118Z,12.80
2022-11-17T03:27:57.853Z,12.80
2022-11-17T03:30:29.966Z,12.80
2022-11-17T03:33:05.248Z,12.80
2022-11-17T03:35:34.857Z,12.80
2022-11-17T03:38:05.374Z,12.80
2022-11-17T03:40:34.192Z,12.70
2022-11-17T03:43:03.796Z,12.70
2022-11-17T03:45:35.508Z,12.70
2022-11-17T03:48:08.364Z,12.70
2022-11-17T03:50:38.558Z,12.70
2022-11-17T03:53:07.339Z,12.80
2022-11-17T03:55:39.592Z,12.70
2022-11-17T03:58:10.413Z,12.60
2022-11-17T04:00:41.090Z,12.60
2022-11-17T04:03:09.423Z,12.60
2022-11-17T04:05:37.476Z,12.60
2022-11-17T04:08:05.672Z,12.60
2022-11-17T04:10:53.976Z,12.60
2022-11-17T04:13:39.681Z,12.70
2022-11-17T04:16:09.604Z,12.60
2022-11-17T04:18:37.628Z,12.60
2022-11-17T04:21:05.933Z,12.60
2022-11-17T04:23:34.371Z,12.70
2022-11-17T04:26:20.026Z,12.70
2022-11-17T04:28:49.186Z,12.70
2022-11-17T04:31:19.306Z,12.80
2022-11-17T04:33:48.309Z,12.70
2022-11-17T04:36:17.412Z,12.70
2022-11-17T04:38:46.330Z,12.60
2022-11-17T04:41:33.741Z,12.60
2022-11-17T04:44:02.528Z,12.60
2022-11-17T04:46:32.992Z,12.70
2022-11-17T04:49:01.326Z,12.50
2022-11-17T04:51:30.459Z,12.50
2022-11-17T04:53:58.548Z,12.40
2022-11-17T04:56:27.134Z,12.50
2022-11-17T04:58:55.831Z,12.60
2022-11-17T05:01:24.501Z,12.50
2022-11-17T05:03:54.554Z,12.50
2022-11-17T05:06:25.310Z,12.50
2022-11-17T05:08:55.659Z,12.30
2022-11-17T05:11:47.557Z,12.30
2022-11-17T05:14:17.476Z,12.30
2022-11-17T05:17:09.049Z,12.20
2022-11-17T05:19:40.016Z,12.20
2022-11-17T05:22:29.617Z,12.10
2022-11-17T05:24:56.908Z,12.00
2022-11-17T05:27:25.488Z,12.00
2022-11-17T05:29:53.650Z,12.10
2022-11-17T05:32:21.914Z,12.10
2022-11-17T05:34:51.803Z,12.00
2022-11-17T05:37:19.976Z,12.00
2022-11-17T05:39:47.988Z,11.90
2022-11-17T05:42:16.375Z,11.90
2022-11-17T05:44:44.655Z,11.80
2022-11-17T05:47:12.743Z,11.90
2022-11-17T05:49:42.188Z,11.80
2022-11-17T05:52:11.684Z,11.60
2022-11-17T05:54:39.722Z,11.60
2022-11-17T05:57:09.659Z,11.60
2022-11-17T05:59:40.078Z,11.60
2022-11-17T06:02:11.058Z,11.60
2022-11-17T06:04:39.432Z,11.60
2022-11-17T06:07:08.053Z,11.50
2022-11-17T06:09:38.494Z,11.50
2022-11-17T06:12:06.852Z,11.50
2022-11-17T06:14:35.574Z,11.50
2022-11-17T06:17:05.571Z,11.50
2022-11-17T06:19:35.812Z,11.50
2022-11-17T06:22:12.200Z,11.50
2022-11-17T06:24:44.093Z,11.50
2022-11-17T06:27:12.400Z,11.60
2022-11-17T06:29:44.232Z,11.60
2022-11-17T06:32:13.848Z,11.60
2022-11-17T06:34:42.405Z,11.60
2022-11-17T06:37:11.442Z,11.60
2022-11-17T06:39:39.684Z,11.60
2022-11-17T06:42:09.222Z,11.50
2022-11-17T06:44:37.343Z,11.50
2022-11-17T06:47:05.808Z,11.60
2022-11-17T06:49:34.012Z,11.60
2022-11-17T06:52:02.333Z,11.80
2022-11-17T06:54:30.680Z,11.70
2022-11-17T06:56:58.790Z,11.70
2022-11-17T06:59:28.238Z,11.60
2022-11-17T07:01:56.632Z,11.70
2022-11-17T07:04:24.715Z,11.80
2022-11-17T07:06:53.003Z,11.90
2022-11-17T07:09:21.233Z,11.80
2022-11-17T07:11:49.414Z,11.80
2022-11-17T07:14:17.589Z,11.70
2022-11-17T07:16:47.444Z,11.60
2022-11-17T07:19:16.456Z,11.60
2022-11-17T07:21:44.639Z,11.70
2022-11-17T07:24:13.286Z,11.70
2022-11-17T07:26:41.996Z,11.70
2022-11-17T07:29:10.201Z,11.80
2022-11-17T07:31:38.656Z,11.80
2022-11-17T07:34:08.209Z,11.70
2022-11-17T07:36:36.407Z,11.60
2022-11-17T07:39:05.966Z,11.60
2022-11-17T07:41:34.294Z,11.60
2022-11-17T07:44:02.555Z,11.70
2022-11-17T07:46:30.860Z,11.60
2022-11-17T07:48:59.147Z,11.60
2022-11-17T07:51:28.714Z,11.70
2022-11-17T07:53:57.088Z,11.70
2022-11-17T07:56:25.256Z,11.70
2022-11-17T07:58:54.645Z,11.80
2022-11-17T08:01:24.135Z,11.60
2022-11-17T08:03:52.343Z,11.70
2022-11-17T08:06:21.142Z,11.70
2022-11-17T08:08:50.907Z,11.80
2022-11-17T08:11:19.412Z,11.70
2022-11-17T08:13:47.852Z,11.80
2022-11-17T08:16:16.595Z,11.80
2022-11-17T08:18:50.581Z,11.90
2022-11-17T08:21:20.685Z,11.90
2022-11-17T08:23:53.029Z,11.80
2022-11-17T08:26:21.847Z,11.80
2022-11-17T08:28:55.249Z,11.70
2022-11-17T08:31:26.715Z,11.80
2022-11-17T08:33:54.790Z,11.90
2022-11-17T08:36:23.010Z,11.90
2022-11-17T08:38:52.772Z,12.00
2022-11-17T08:41:21.799Z,12.00
2022-11-17T08:43:51.005Z,11.90
2022-11-17T08:46:19.452Z,12.00
2022-11-17T08:48:52.246Z,12.10
2022-11-17T08:51:24.050Z,12.10
2022-11-17T08:53:53.601Z,12.10
2022-11-17T08:56:21.809Z,12.00
2022-11-17T08:58:50.210Z,12.20
2022-11-17T09:01:18.593Z,12.20
2022-11-17T09:03:47.329Z,12.20
2022-11-17T09:06:17.741Z,12.30
2022-11-17T09:08:47.407Z,12.30
2022-11-17T09:11:17.774Z,12.30
2022-11-17T09:13:47.265Z,12.30
2022-11-17T09:16:17.282Z,12.40
2022-11-17T09:18:45.714Z,12.40
2022-11-17T09:21:15.298Z,12.50
2022-11-17T09:23:43.713Z,12.40
2022-11-17T09:26:12.509Z,12.40
2022-11-17T09:28:43.237Z,12.60
2022-11-17T09:31:12.680Z,12.50
2022-11-17T09:33:41.012Z,12.30
2022-11-17T09:36:09.786Z,12.40
2022-11-17T09:38:38.713Z,12.30
2022-11-17T09:41:20.205Z,12.40
2022-11-17T09:43:52.914Z,12.50
2022-11-17T09:46:23.977Z,12.50
2022-11-17T09:48:55.166Z,12.50
2022-11-17T09:51:25.950Z,12.60
2022-11-17T09:53:57.659Z,12.70
2022-11-17T09:56:28.428Z,12.80
2022-11-17T09:58:58.849Z,12.90
2022-11-17T10:01:29.625Z,12.80
2022-11-17T10:04:00.123Z,12.90
2022-11-17T10:06:29.459Z,12.80
2022-11-17T10:09:00.717Z,12.80
2022-11-17T10:11:33.040Z,12.70
2022-11-17T10:14:11.822Z,12.60
2022-11-17T10:16:42.011Z,12.40
2022-11-17T10:19:16.526Z,12.30
2022-11-17T10:21:45.211Z,12.40
2022-11-17T10:24:33.239Z,12.10
2022-11-17T10:27:02.327Z,12.10
2022-11-17T10:29:31.831Z,12.10
2022-11-17T10:32:01.815Z,12.20
2022-11-17T10:34:36.997Z,12.30
2022-11-17T10:37:23.794Z,12.50
2022-11-17T10:39:52.579Z,12.50
2022-11-17T10:42:23.842Z,12.50
2022-11-17T10:44:55.133Z,12.40
2022-11-17T10:47:27.867Z,12.30
2022-11-17T10:50:16.745Z,12.30
2022-11-17T10:52:44.890Z,12.40
2022-11-17T10:55:34.429Z,12.40
2022-11-17T10:58:19.775Z,12.60
2022-11-17T11:00:53.567Z,12.60
2022-11-17T11:03:23.115Z,12.80
2022-11-17T11:06:02.018Z,12.80
2022-11-17T11:08:34.557Z,12.80
2022-11-17T11:11:04.022Z,12.90
2022-11-17T11:13:34.971Z,12.90
2022-11-17T11:16:04.807Z,12.80
2022-11-17T11:18:33.038Z,12.80
2022-11-17T11:21:07.731Z,12.90
2022-11-17T11:23:39.727Z,13.10
2022-11-17T11:26:12.413Z,13.10
2022-11-17T11:28:51.260Z,13.00
2022-11-17T11:31:27.573Z,13.10
2022-11-17T11:33:58.843Z,13.30
2022-11-17T11:36:31.836Z,13.10
2022-11-17T11:39:03.055Z,13.10
2022-11-17T11:41:43.873Z,13.20
2022-11-17T11:44:30.046Z,13.00
2022-11-17T11:47:02.815Z,13.10
2022-11-17T11:49:35.730Z,13.00
2022-11-17T11:52:04.846Z,13.00
2022-11-17T11:54:39.436Z,13.10
2022-11-17T11:57:10.812Z,13.00
2022-11-17T11:59:41.345Z,13.00
2022-11-17T12:02:20.530Z,13.00
2022-11-17T12:04:51.549Z,13.00
2022-11-17T12:07:22.341Z,13.20
2022-11-17T12:09:56.191Z,13.40
2022-11-17T12:12:31.693Z,13.40
2022-11-17T12:15:10.974Z,13.50
2022-11-17T12:17:54.320Z,13.60
2022-11-17T12:20:37.412Z,13.70
2022-11-17T12:23:11.362Z,13.70
2022-11-17T12:25:49.185Z,13.60
2022-11-17T12:28:29.356Z,13.70
2022-11-17T12:30:58.953Z,13.80
2022-11-17T12:33:41.873Z,13.80
2022-11-17T12:36:30.630Z,13.90
2022-11-17T12:38:59.792Z,13.80
2022-11-17T12:41:55.195Z,13.90
2022-11-17T12:44:50.557Z,13.80
2022-11-17T12:47:20.487Z,13.60
2022-11-17T12:49:56.650Z,13.50
2022-11-17T12:52:30.993Z,13.60
2022-11-17T12:55:03.061Z,13.70
2022-11-17T12:57:33.269Z,13.90
2022-11-17T13:00:07.744Z,13.90
2022-11-17T13:02:48.650Z,13.80
2022-11-17T13:05:18.940Z,13.90
2022-11-17T13:07:48.858Z,13.90
2022-11-17T13:10:26.620Z,14.00
2022-11-17T13:13:09.954Z,13.80
2022-11-17T13:15:38.208Z,13.80
2022-11-17T13:18:10.957Z,13.80
2022-11-17T13:20:39.559Z,13.70
2022-11-17T13:23:16.300Z,13.70
2022-11-17T13:25:44.565Z,13.50
2022-11-17T13:28:26.635Z,13.50
2022-11-17T13:30:54.784Z,13.50
2022-11-17T13:33:24.327Z,13.50
2022-11-17T13:36:08.768Z,13.50
2022-11-17T13:38:38.508Z,13.50
2022-11-17T13:41:06.862Z,13.50
2022-11-17T13:43:40.050Z,13.50
2022-11-17T13:46:09.350Z,13.60
2022-11-17T13:48:38.465Z,13.70
2022-11-17T13:51:17.821Z,13.70
2022-11-17T13:53:48.223Z,13.80
2022-11-17T13:56:26.935Z,13.70
2022-11-17T13:58:55.468Z,13.70
2022-11-17T14:01:25.098Z,13.60
2022-11-17T14:03:53.499Z,13.80
2022-11-17T14:06:21.905Z,13.90
2022-11-17T14:09:05.777Z,13.80
2022-11-17T14:11:34.185Z,13.80
2022-11-17T14:14:02.736Z,13.90
2022-11-17T14:16:34.272Z,13.90
2022-11-17T14:19:04.058Z,13.80
2022-11-17T14:21:32.696Z,13.80
2022-11-17T14:24:03.001Z,13.80
2022-11-17T14:26:33.180Z,13.70
2022-11-17T14:29:03.030Z,13.80
2022-11-17T14:31:31.961Z,13.90
2022-11-17T14:34:00.384Z,13.90
2022-11-17T14:36:28.794Z,13.80
2022-11-17T14:38:57.081Z,13.80
2022-11-17T14:41:25.564Z,13.80
2022-11-17T14:43:55.251Z,13.70
2022-11-17T14:46:24.427Z,13.60
2022-11-17T14:48:53.560Z,13.50
2022-11-17T14:51:22.508Z,13.50
2022-11-17T14:53:50.602Z,13.50
2022-11-17T14:56:19.835Z,13.40
2022-11-17T14:58:49.793Z,13.60
2022-11-17T15:01:20.463Z,13.60
2022-11-17T15:03:48.818Z,13.50
2022-11-17T15:06:20.168Z,13.50
2022-11-17T15:08:48.835Z,13.40
2022-11-17T15:11:18.478Z,13.50
2022-11-17T15:13:46.886Z,13.40
2022-11-17T15:16:16.399Z,13.50
2022-11-17T15:18:49.459Z,13.60
2022-11-17T15:21:18.075Z,13.60
2022-11-17T15:23:46.902Z,13.60
2022-11-17T15:26:16.486Z,13.60
2022-11-17T15:28:44.795Z,13.60
2022-11-17T15:31:14.199Z,13.50
2022-11-17T15:33:42.949Z,13.50
2022-11-17T15:36:13.307Z,13.50
2022-11-17T15:38:42.916Z,13.40
2022-11-17T15:41:12.108Z,13.40
2022-11-17T15:43:41.038Z,13.50
2022-11-17T15:46:10.472Z,13.40
2022-11-17T15:48:40.190Z,13.30
2022-11-17T15:51:10.609Z,13.20
2022-11-17T15:53:40.508Z,13.30
2022-11-17T15:56:09.574Z,13.20
2022-11-17T15:58:37.899Z,13.10
2022-11-17T16:01:10.452Z,13.00
2022-11-17T16:03:38.559Z,13.10
2022-11-17T16:06:07.155Z,13.20
2022-11-17T16:08:35.798Z,13.10
2022-11-17T16:11:06.077Z,13.10
2022-11-17T16:13:34.448Z,13.10
2022-11-17T16:16:03.068Z,13.10
2022-11-17T16:18:33.232Z,13.10
2022-11-17T16:21:04.929Z,13.10
2022-11-17T16:23:38.088Z,13.10
2022-11-17T16:26:07.792Z,13.10
2022-11-17T16:28:36.176Z,13.20
2022-11-17T16:31:12.836Z,13.20
2022-11-17T16:33:42.628Z,13.00
2022-11-17T16:36:10.810Z,13.10
2022-11-17T16:38:49.793Z,13.20
2022-11-17T16:41:29.634Z,13.20
2022-11-17T16:43:57.840Z,13.00
2022-11-17T16:46:26.993Z,13.00
2022-11-17T16:48:55.701Z,13.00
2022-11-17T16:51:24.771Z,13.20
2022-11-17T16:53:56.825Z,13.10
2022-11-17T16:56:25.417Z,13.00
2022-11-17T16:58:55.839Z,12.80
2022-11-17T17:01:25.159Z,12.80
2022-11-17T17:03:56.545Z,12.90
2022-11-17T17:06:25.141Z,13.00
2022-11-17T17:08:56.885Z,13.00
2022-11-17T17:11:29.343Z,12.90
2022-11-17T17:14:00.273Z,12.90
2022-11-17T17:16:28.788Z,12.80
2022-11-17T17:18:59.143Z,12.90
2022-11-17T17:21:28.096Z,13.00
2022-11-17T17:23:56.769Z,13.00
2022-11-17T17:26:26.680Z,13.10
2022-11-17T17:28:55.974Z,12.90
2022-11-17T17:31:26.455Z,13.10
2022-11-17T17:33:55.937Z,13.00
2022-11-17T17:36:24.711Z,13.00
2022-11-17T17:38:56.597Z,13.00
2022-11-17T17:41:25.825Z,13.00
2022-11-17T17:43:57.731Z,12.90
2022-11-17T17:46:29.733Z,13.00
2022-11-17T17:48:58.570Z,12.90
2022-11-17T17:51:28.197Z,12.90
2022-11-17T17:53:58.097Z,13.00
2022-11-17T17:56:26.821Z,12.90
2022-11-17T17:58:55.543Z,12.90
2022-11-17T18:01:24.501Z,12.80
2022-11-17T18:03:55.003Z,12.90
2022-11-17T18:06:23.531Z,13.00
2022-11-17T18:08:51.695Z,12.70
2022-11-17T18:11:20.961Z,12.60
2022-11-17T18:13:49.727Z,12.70
2022-11-17T18:16:18.701Z,12.70
2022-11-17T18:18:47.145Z,12.70
2022-11-17T18:21:17.652Z,12.70
2022-11-17T18:23:46.104Z,12.70
2022-11-17T18:26:16.760Z,12.70
2022-11-17T18:28:45.551Z,12.80
2022-11-17T18:31:14.187Z,12.70
2022-11-17T18:33:45.245Z,12.60
2022-11-17T18:36:14.336Z,12.70
2022-11-17T18:38:43.859Z,12.60
2022-11-17T18:41:13.045Z,12.60
2022-11-17T18:43:42.271Z,12.70
2022-11-17T18:46:11.278Z,12.70
2022-11-17T18:48:40.966Z,12.50
2022-11-17T18:51:25.329Z,12.60
2022-11-17T18:53:55.798Z,12.70
2022-11-17T18:56:25.040Z,12.70
2022-11-17T18:58:53.243Z,12.80
2022-11-17T19:01:22.383Z,12.70
2022-11-17T19:03:51.261Z,12.60
2022-11-17T19:06:19.939Z,12.50
2022-11-17T19:08:49.289Z,12.70
2022-11-17T19:11:19.762Z,12.70
2022-11-17T19:13:48.020Z,12.70
2022-11-17T19:16:17.289Z,12.70
2022-11-17T19:18:45.949Z,12.60
2022-11-17T19:21:15.469Z,12.40
2022-11-17T19:23:50.740Z,12.40
2022-11-17T19:26:22.002Z,12.40
2022-11-17T19:28:50.712Z,12.30
2022-11-17T19:31:19.778Z,12.30
2022-11-17T19:33:48.477Z,12.40
2022-11-17T19:36:17.998Z,12.10
2022-11-17T19:38:48.658Z,12.10
2022-11-17T19:41:18.412Z,12.10
2022-11-17T19:43:48.462Z,12.10
2022-11-17T19:46:17.452Z,12.10
2022-11-17T19:48:45.833Z,12.10
2022-11-17T19:51:16.554Z,12.00
2022-11-17T19:53:44.741Z,12.00
2022-11-17T19:56:13.562Z,12.20
2022-11-17T19:58:42.509Z,12.30
2022-11-17T20:01:14.178Z,12.30
2022-11-17T20:03:42.714Z,12.30
2022-11-17T20:06:11.983Z,12.20
2022-11-17T20:08:40.353Z,12.30
2022-11-17T20:11:09.440Z,12.20
2022-11-17T20:13:38.035Z,12.30
2022-11-17T20:16:11.785Z,12.30
2022-11-17T20:18:42.772Z,12.20
2022-11-17T20:21:11.655Z,12.20
2022-11-17T20:23:39.950Z,12.30
2022-11-17T20:26:09.206Z,12.20
2022-11-17T20:28:38.044Z,12.20
2022-11-17T20:31:10.106Z,12.00
2022-11-17T20:33:38.906Z,12.10
2022-11-17T20:36:09.685Z,12.00
2022-11-17T20:38:37.902Z,11.80
2022-11-17T20:41:06.842Z,12.00
2022-11-17T20:43:35.360Z,12.20
2022-11-17T20:46:04.185Z,12.10
2022-11-17T20:48:34.180Z,11.90
2022-11-17T20:51:03.479Z,12.00
2022-11-17T20:53:33.131Z,12.00
2022-11-17T20:56:02.470Z,12.00
2022-11-17T20:58:30.807Z,12.10
2022-11-17T21:00:59.070Z,12.20
2022-11-17T21:03:28.033Z,12.20
2022-11-17T21:05:59.269Z,11.90
2022-11-17T21:08:28.281Z,12.00
2022-11-17T21:10:58.385Z,12.10
2022-11-17T21:13:27.027Z,12.10
2022-11-17T21:16:05.066Z,12.00
2022-11-17T21:18:33.760Z,12.00
2022-11-17T21:21:04.517Z,11.90
2022-11-17T21:23:32.852Z,11.90
2022-11-17T21:26:05.236Z,11.80
2022-11-17T21:28:33.601Z,11.70
2022-11-17T21:31:07.378Z,11.80
2022-11-17T21:33:35.760Z,11.90
2022-11-17T21:36:04.171Z,11.90
2022-11-17T21:38:32.254Z,12.00
2022-11-17T21:41:05.572Z,12.00
2022-11-17T21:43:33.734Z,12.00
2022-11-17T21:46:02.392Z,12.00
2022-11-17T21:48:30.824Z,12.10
2022-11-17T21:50:59.650Z,12.10
2022-11-17T21:53:28.452Z,12.00
2022-11-17T21:56:01.134Z,12.00
2022-11-17T21:58:31.004Z,12.00
2022-11-17T22:00:59.579Z,12.00
2022-11-17T22:03:28.243Z,12.00
2022-11-17T22:06:06.601Z,12.00
2022-11-17T22:08:36.328Z,12.00
2022-11-17T22:11:05.482Z,12.10
2022-11-17T22:13:35.107Z,12.00
2022-11-17T22:16:04.144Z,12.10
2022-11-17T22:18:32.597Z,12.20
2022-11-17T22:21:00.669Z,12.20
2022-11-17T22:23:29.559Z,12.20
2022-11-17T22:25:59.111Z,11.90
2022-11-17T22:28:27.766Z,11.80
2022-11-17T22:30:57.680Z,11.90
2022-11-17T22:33:26.060Z,11.90
2022-11-17T22:35:54.430Z,12.00
2022-11-17T22:38:22.579Z,11.90
2022-11-17T22:40:50.999Z,11.90
2022-11-17T22:43:19.029Z,11.80
2022-11-17T22:45:47.201Z,11.80
2022-11-17T22:48:17.038Z,11.70
2022-11-17T22:50:45.405Z,11.80
2022-11-17T22:53:14.339Z,11.80
2022-11-17T22:55:42.676Z,11.60
2022-11-17T22:58:10.905Z,11.90
2022-11-17T23:00:39.028Z,11.80
2022-11-17T23:03:07.551Z,11.70
2022-11-17T23:05:37.186Z,11.80
2022-11-17T23:08:09.693Z,11.60
2022-11-17T23:10:38.699Z,11.60
2022-11-17T23:13:06.776Z,11.70
2022-11-17T23:15:34.886Z,11.70
2022-11-17T23:18:03.281Z,11.90
2022-11-17T23:20:31.399Z,11.70
2022-11-17T23:23:00.864Z,11.70
2022-11-17T23:25:29.115Z,11.70
2022-11-17T23:27:57.233Z,11.70
2022-11-17T23:30:35.118Z,11.60
2022-11-17T23:33:03.565Z,11.70
2022-11-17T23:35:31.747Z,11.60
2022-11-17T23:38:01.226Z,11.70
2022-11-17T23:40:29.410Z,11.70
2022-11-17T23:42:57.490Z,11.70
2022-11-17T23:45:25.541Z,11.70
2022-11-17T23:47:54.402Z,11.70
2022-11-17T23:50:22.454Z,11.70
2022-11-17T23:52:50.644Z,11.80
2022-11-17T23:55:20.323Z,11.80
2022-11-17T23:57:48.470Z,11.80
